Time,TemperatureF,DewpointF,PressureIn,WindDirection,WindDirectionDegrees,WindSpeedMPH,WindSpeedGustMPH,Humidity,HourlyPrecipIn,Conditions,Clouds,dailyrainin,SoftwareType,DateUTC
2013-09-14 00:14:00,67.0,54.0,29.87,East,81,1.0,7.0,63,0.00,,,0.00,,2013-09-14 04:14:00,
2013-09-14 00:24:00,67.0,54.0,29.87,East,86,1.0,8.0,64,0.00,,,0.00,,2013-09-14 04:24:00,
2013-09-14 00:43:00,66.0,54.0,29.88,NNE,28,0.0,5.0,65,0.00,,,0.00,,2013-09-14 04:43:00,
2013-09-14 00:54:00,66.0,55.0,29.88,NNW,342,2.0,6.0,67,0.00,,,0.00,,2013-09-14 04:54:00,
2013-09-14 01:13:00,66.0,54.0,29.88,ENE,74,3.0,7.0,66,0.00,,,0.00,,2013-09-14 05:13:00,
2013-09-14 01:22:00,66.0,54.0,29.88,NE,38,3.0,7.0,66,0.00,,,0.00,,2013-09-14 05:22:00,
2013-09-14 01:43:00,65.0,54.0,29.89,ENE,70,2.0,5.0,67,0.00,,,0.00,,2013-09-14 05:43:00,
2013-09-14 01:52:00,65.0,55.0,29.89,NNE,16,1.0,5.0,69,0.00,,,0.00,,2013-09-14 05:52:00,
2013-09-14 02:12:00,64.0,54.0,29.89,ENE,66,1.0,4.0,71,0.00,,,0.00,,2013-09-14 06:12:00,
2013-09-14 02:22:00,64.0,54.0,29.89,NNE,16,2.0,4.0,70,0.00,,,0.00,,2013-09-14 06:22:00,
2013-09-14 02:42:00,64.0,54.0,29.89,NNE,28,2.0,5.0,70,0.00,,,0.00,,2013-09-14 06:42:00,
2013-09-14 02:52:00,63.0,53.0,29.89,NNE,27,3.0,7.0,71,0.00,,,0.00,,2013-09-14 06:52:00,
2013-09-14 03:12:00,63.0,54.0,29.90,NNE,28,2.0,6.0,73,0.00,,,0.00,,2013-09-14 07:12:00,
2013-09-14 03:22:00,63.0,54.0,29.90,NNE,12,3.0,7.0,72,0.00,,,0.00,,2013-09-14 07:22:00,
2013-09-14 03:42:00,63.0,53.0,29.90,NE,35,4.0,11.0,70,0.00,,,0.00,,2013-09-14 07:42:00,
2013-09-14 03:52:00,63.0,53.0,29.89,NNE,12,6.0,14.0,70,0.00,,,0.00,,2013-09-14 07:52:00,
2013-09-14 04:12:00,63.0,53.0,29.89,North,360,6.0,10.0,70,0.00,,,0.00,,2013-09-14 08:12:00,
2013-09-14 04:22:00,63.0,53.0,29.89,NNE,13,4.0,10.0,69,0.00,,,0.00,,2013-09-14 08:22:00,
2013-09-14 04:42:00,62.0,53.0,29.90,NE,53,2.0,7.0,72,0.00,,,0.00,,2013-09-14 08:42:00,
2013-09-14 04:52:00,61.0,53.0,29.90,NE,53,2.0,7.0,75,0.00,,,0.00,,2013-09-14 08:52:00,
2013-09-14 05:12:00,61.0,53.0,29.90,NE,34,3.0,9.0,76,0.00,,,0.00,,2013-09-14 09:12:00,
2013-09-14 05:22:00,61.0,53.0,29.91,North,5,1.0,8.0,74,0.00,,,0.00,,2013-09-14 09:22:00,
2013-09-14 05:43:00,61.0,53.0,29.91,NNE,30,2.0,6.0,76,0.00,,,0.00,,2013-09-14 09:43:00,
2013-09-14 05:53:00,60.0,52.0,29.91,ENE,73,2.0,9.0,76,0.00,,,0.00,,2013-09-14 09:53:00,
2013-09-14 06:12:00,60.0,52.0,29.92,NE,52,2.0,9.0,76,0.00,,,0.00,,2013-09-14 10:12:00,
2013-09-14 06:23:00,60.0,52.0,29.92,NNE,26,4.0,10.0,76,0.00,,,0.00,,2013-09-14 10:23:00,
2013-09-14 06:52:00,60.0,52.0,29.93,NNE,20,6.0,11.0,76,0.00,,,0.00,,2013-09-14 10:52:00,
2013-09-14 07:12:00,60.0,52.0,29.93,NNE,30,3.0,10.0,76,0.00,,,0.00,,2013-09-14 11:12:00,
2013-09-14 07:22:00,59.0,52.0,29.95,North,5,3.0,9.0,78,0.00,,,0.00,,2013-09-14 11:22:00,
2013-09-14 07:42:00,59.0,52.0,29.95,ENE,72,5.0,12.0,78,0.00,,,0.00,,2013-09-14 11:42:00,
2013-09-14 07:52:00,59.0,52.0,29.96,NE,51,3.0,10.0,77,0.00,,,0.00,,2013-09-14 11:52:00,
2013-09-14 08:12:00,59.0,52.0,29.97,North,355,5.0,12.0,77,0.00,,,0.00,,2013-09-14 12:12:00,
2013-09-14 08:22:00,59.0,52.0,29.98,NE,55,4.0,10.0,77,0.00,,,0.00,,2013-09-14 12:22:00,
2013-09-14 09:21:00,62.0,52.0,30.00,NE,55,9.0,13.0,69,0.00,,,0.00,,2013-09-14 13:21:00,
2013-09-14 10:42:00,67.0,53.0,30.02,East,80,6.0,13.0,60,0.00,,,0.00,,2013-09-14 14:42:00,
2013-09-14 10:52:00,67.0,52.0,30.03,East,84,8.0,14.0,59,0.00,,,0.00,,2013-09-14 14:52:00,
2013-09-14 11:11:00,69.0,53.0,30.03,ENE,67,8.0,14.0,57,0.00,,,0.00,,2013-09-14 15:11:00,
2013-09-14 11:22:00,69.0,54.0,30.03,NNE,23,7.0,12.0,58,0.00,,,0.00,,2013-09-14 15:22:00,
2013-09-14 12:23:00,71.0,54.0,30.03,NE,42,4.0,11.0,55,0.00,,,0.00,,2013-09-14 16:23:00,
2013-09-14 12:44:00,72.0,54.0,30.03,ESE,108,3.0,10.0,54,0.00,,,0.00,,2013-09-14 16:44:00,
2013-09-14 12:54:00,74.0,54.0,30.03,North,9,4.0,14.0,50,0.00,,,0.00,,2013-09-14 16:54:00,
2013-09-14 13:11:00,67.0,61.0,29.80,WSW,251,3.0,11.0,80,0.00,,,0.00,,2013-09-14 17:11:00,
2013-09-14 13:24:00,67.0,61.0,29.81,WSW,251,3.0,-999.0,80,-99.99,,,-99.99,,2013-09-14 17:24:00,
2013-09-14 13:43:00,67.0,61.0,29.81,SW,225,5.0,8.0,80,0.00,,,0.00,,2013-09-14 17:43:00,
2013-09-14 14:12:00,68.0,61.0,29.80,SW,221,6.0,11.0,79,0.00,,,0.00,,2013-09-14 18:12:00,
2013-09-14 14:43:00,69.0,61.0,29.80,SW,233,7.0,16.0,76,0.00,,,0.00,,2013-09-14 18:43:00,
2013-09-14 14:52:00,76.0,56.0,30.01,ENE,67,3.0,8.0,50,0.00,,,0.00,,2013-09-14 18:52:00,
2013-09-14 15:11:00,76.0,56.0,30.00,NE,51,5.0,9.0,50,0.00,,,0.00,,2013-09-14 19:11:00,
2013-09-14 15:22:00,77.0,56.0,30.00,NNE,19,9.0,13.0,49,0.00,,,0.00,,2013-09-14 19:22:00,
2013-09-14 15:42:00,77.0,56.0,30.00,SE,146,3.0,10.0,49,0.00,,,0.00,,2013-09-14 19:42:00,
2013-09-14 15:52:00,77.0,57.0,30.00,NE,51,4.0,7.0,51,0.00,,,0.00,,2013-09-14 19:52:00,
2013-09-14 16:12:00,78.0,57.0,29.99,ESE,119,3.0,7.0,49,0.00,,,0.00,,2013-09-14 20:12:00,
2013-09-14 16:22:00,78.0,57.0,29.99,NE,48,4.0,7.0,49,0.00,,,0.00,,2013-09-14 20:22:00,
2013-09-14 16:42:00,77.0,57.0,29.99,SE,145,2.0,10.0,50,0.00,,,0.00,,2013-09-14 20:42:00,
2013-09-14 16:52:00,77.0,57.0,30.00,NE,54,4.0,10.0,50,0.00,,,0.00,,2013-09-14 20:52:00,
2013-09-14 17:12:00,78.0,58.0,30.00,East,88,2.0,7.0,50,0.00,,,0.00,,2013-09-14 21:12:00,
2013-09-14 17:22:00,78.0,58.0,30.00,ESE,111,2.0,7.0,50,0.00,,,0.00,,2013-09-14 21:22:00,
2013-09-14 17:44:00,77.0,58.0,30.00,East,94,3.0,7.0,52,0.00,,,0.00,,2013-09-14 21:44:00,
2013-09-14 17:54:00,76.0,58.0,30.00,ENE,74,4.0,7.0,53,0.00,,,0.00,,2013-09-14 21:54:00,
2013-09-14 18:13:00,76.0,58.0,30.01,NE,38,3.0,7.0,54,0.00,,,0.00,,2013-09-14 22:13:00,
2013-09-14 18:24:00,75.0,58.0,30.01,NE,51,5.0,9.0,56,0.00,,,0.00,,2013-09-14 22:24:00,
2013-09-14 18:42:00,74.0,58.0,30.01,NE,50,1.0,6.0,58,0.00,,,0.00,,2013-09-14 22:42:00,
2013-09-14 18:53:00,74.0,57.0,30.02,North,11,2.0,9.0,56,0.00,,,0.00,,2013-09-14 22:53:00,
2013-09-14 19:12:00,74.0,58.0,30.02,NE,52,2.0,8.0,57,0.00,,,0.00,,2013-09-14 23:12:00,
2013-09-14 19:23:00,73.0,58.0,30.02,NE,44,3.0,7.0,60,0.00,,,0.00,,2013-09-14 23:23:00,
2013-09-14 19:42:00,73.0,59.0,30.02,ENE,78,2.0,6.0,62,0.00,,,0.00,,2013-09-14 23:42:00,
2013-09-14 19:53:00,71.0,59.0,30.02,ENE,74,0.0,5.0,65,0.00,,,0.00,,2013-09-14 23:53:00,
2013-09-14 20:12:00,70.0,58.0,30.02,ENE,59,0.0,2.0,66,0.00,,,0.00,,2013-09-15 00:12:00,
2013-09-14 20:22:00,69.0,59.0,30.02,NE,55,1.0,2.0,70,0.00,,,0.00,,2013-09-15 00:22:00,
2013-09-14 20:42:00,68.0,58.0,30.02,NE,55,0.0,2.0,71,0.00,,,0.00,,2013-09-15 00:42:00,
2013-09-14 20:53:00,67.0,58.0,30.03,NE,55,1.0,3.0,73,0.00,,,0.00,,2013-09-15 00:53:00,
2013-09-14 21:11:00,67.0,58.0,30.03,NE,55,1.0,3.0,72,0.00,,,0.00,,2013-09-15 01:11:00,
2013-09-14 21:22:00,67.0,58.0,30.04,NE,55,0.0,3.0,73,0.00,,,0.00,,2013-09-15 01:22:00,
2013-09-14 21:42:00,67.0,58.0,30.05,ENE,57,0.0,3.0,73,0.00,,,0.00,,2013-09-15 01:42:00,
2013-09-14 21:52:00,65.0,58.0,30.06,ENE,57,0.0,1.0,77,0.00,,,0.00,,2013-09-15 01:52:00,
2013-09-14 22:12:00,67.0,58.0,30.06,ENE,58,0.0,3.0,74,0.00,,,0.00,,2013-09-15 02:12:00,
2013-09-14 22:22:00,66.0,59.0,30.07,ENE,58,0.0,3.0,78,0.00,,,0.00,,2013-09-15 02:22:00,
2013-09-14 22:42:00,66.0,59.0,30.07,ENE,58,0.0,3.0,78,0.00,,,0.00,,2013-09-15 02:42:00,
2013-09-14 22:52:00,67.0,59.0,30.07,ENE,59,0.0,3.0,75,0.00,,,0.00,,2013-09-15 02:52:00,
2013-09-14 23:11:00,66.0,58.0,30.08,ENE,61,1.0,4.0,75,0.00,,,0.00,,2013-09-15 03:11:00,
2013-09-14 23:22:00,66.0,58.0,30.08,NE,40,0.0,2.0,76,0.00,,,0.00,,2013-09-15 03:22:00,
2013-09-14 23:44:00,66.0,58.0,30.08,East,85,1.0,3.0,75,0.00,,,0.00,,2013-09-15 03:44:00,
2013-09-14 23:55:00,66.0,58.0,30.09,East,86,0.0,3.0,76,0.00,,,0.00,,2013-09-15 03:55:00,